Time;durP1;ratioP1;P1;durP2;ratioP2;P2;SDS_P1;SDS_P2;PMS_P1;PMS_P2;Temp;Humidity;BMP_temperature;BMP_pressure;BME280_temperature;BME280_humidity;BME280_pressure;Samples;Min_cycle;Max_cycle;Signal;HPM_P1;HPM_P2
2021/06/17 00:00:43;;;;;;;6.38;3.00;;;24.60;67.80;;;;;;5154063;27;20057;-87
2021/06/17 00:03:09;;;;;;;5.22;2.97;;;24.60;67.70;;;;;;5154412;27;20047;-86
2021/06/17 00:05:36;;;;;;;6.30;3.00;;;24.60;67.80;;;;;;5134617;27;20554;-87
2021/06/17 00:08:06;;;;;;;5.50;2.80;;;24.50;67.70;;;;;;5160006;27;20421;-88
2021/06/17 00:10:44;;;;;;;5.80;3.30;;;24.40;67.60;;;;;;5180343;27;20058;-88
2021/06/17 00:13:20;;;;;;;7.35;3.20;;;24.40;68.20;;;;;;5182170;27;20500;-87
2021/06/17 00:15:48;;;;;;;5.07;3.30;;;24.30;68.60;;;;;;5181954;27;20042;-86
2021/06/17 00:18:14;;;;;;;7.88;3.35;;;24.30;68.40;;;;;;5177030;27;20114;-87
2021/06/17 00:20:41;;;;;;;6.72;3.30;;;24.20;68.20;;;;;;5160747;27;20095;-87
2021/06/17 00:23:07;;;;;;;8.57;3.10;;;24.20;68.40;;;;;;5161199;27;20474;-87
2021/06/17 00:25:33;;;;;;;5.65;3.22;;;24.20;68.10;;;;;;5160340;27;20046;-87
2021/06/17 00:27:59;;;;;;;6.25;3.30;;;24.20;68.40;;;;;;5161301;27;20043;-87
2021/06/17 00:30:25;;;;;;;6.80;3.42;;;24.10;68.40;;;;;;5160746;27;20093;-86
2021/06/17 00:32:51;;;;;;;7.32;3.50;;;24.10;68.50;;;;;;5160468;27;20125;-87
2021/06/17 00:35:17;;;;;;;7.07;3.83;;;24.00;68.60;;;;;;5160736;27;20134;-87
2021/06/17 00:37:43;;;;;;;6.30;3.42;;;24.00;68.70;;;;;;5162467;27;20383;-87
2021/06/17 00:40:12;;;;;;;5.45;3.38;;;23.90;68.70;;;;;;5181335;27;20098;-87
2021/06/17 00:42:40;;;;;;;7.95;3.72;;;23.90;68.80;;;;;;5181742;27;20052;-87
2021/06/17 00:45:09;;;;;;;5.00;3.10;;;23.90;68.90;;;;;;5181879;27;20043;-87
2021/06/17 00:47:34;;;;;;;9.05;3.72;;;23.80;68.80;;;;;;5180661;27;20042;-87
2021/06/17 00:50:00;;;;;;;5.80;3.60;;;23.80;68.90;;;;;;5181719;27;20470;-86
2021/06/17 00:52:26;;;;;;;6.03;3.60;;;23.70;69.00;;;;;;5181734;27;20454;-87
2021/06/17 00:54:57;;;;;;;8.25;4.05;;;23.70;69.20;;;;;;5181048;27;20054;-87
2021/06/17 00:57:23;;;;;;;8.55;3.67;;;23.60;69.10;;;;;;5179779;27;20042;-86
2021/06/17 00:59:49;;;;;;;6.47;3.50;;;23.60;69.30;;;;;;5160888;27;20103;-87
2021/06/17 01:02:15;;;;;;;7.07;3.63;;;23.60;69.40;;;;;;5160333;27;20046;-88
2021/06/17 01:04:41;;;;;;;6.25;3.97;;;23.60;69.50;;;;;;5160442;27;20062;-88
2021/06/17 01:07:06;;;;;;;8.57;3.90;;;23.50;69.60;;;;;;5159970;27;20042;-87
2021/06/17 01:10:06;;;;;;;5.20;3.72;;;23.50;69.80;;;;;;5161701;27;20091;-87
2021/06/17 01:12:50;;;;;;;6.53;4.03;;;23.40;68.50;;;;;;5160162;27;20560;-87
2021/06/17 01:15:21;;;;;;;8.23;4.15;;;23.30;68.90;;;;;;5160025;27;20482;-87
2021/06/17 01:18:14;;;;;;;6.38;4.25;;;23.30;69.50;;;;;;5166352;27;20049;-86
2021/06/17 01:20:57;;;;;;;7.28;4.35;;;23.30;68.70;;;;;;5177863;27;20552;-87
2021/06/17 01:23:42;;;;;;;;;;;23.20;69.00;;;;;;5177382;27;20070;-87
2021/06/17 01:26:22;;;;;;;8.00;4.55;;;23.10;68.20;;;;;;5177741;27;20330;-87
2021/06/17 01:28:52;;;;;;;7.07;4.57;;;23.10;69.40;;;;;;5177463;27;20129;-88
2021/06/17 01:31:24;;;;;;;6.60;4.40;;;23.10;70.00;;;;;;5178038;27;20046;-87
2021/06/17 01:33:52;;;;;;;8.53;3.87;;;23.10;70.00;;;;;;5178118;27;20052;-87
2021/06/17 01:36:40;;;;;;;8.50;4.22;;;23.10;70.10;;;;;;5177253;27;20046;-86
2021/06/17 01:39:09;;;;;;;6.30;4.00;;;23.00;69.50;;;;;;5176079;27;20046;-87
2021/06/17 01:41:41;;;;;;;6.70;4.22;;;22.90;70.40;;;;;;5177281;27;20050;-87
2021/06/17 01:44:08;;;;;;;7.27;4.50;;;22.90;70.20;;;;;;5176898;27;20489;-86
2021/06/17 01:46:35;;;;;;;6.82;4.30;;;23.00;70.50;;;;;;5175629;27;20304;-87
2021/06/17 01:49:02;;;;;;;7.65;4.78;;;22.90;70.50;;;;;;5177568;27;20038;-87
2021/06/17 01:51:29;;;;;;;8.23;5.03;;;22.90;70.70;;;;;;5176516;27;20501;-87
2021/06/17 01:53:54;;;;;;;7.82;4.80;;;22.80;71.00;;;;;;5177753;27;20420;-87
2021/06/17 01:56:24;;;;;;;8.77;5.03;;;22.90;71.20;;;;;;5176756;27;20050;-87
2021/06/17 01:58:54;;;;;;;6.95;4.88;;;22.80;71.10;;;;;;5157467;27;20490;-87
2021/06/17 02:01:21;;;;;;;7.15;4.95;;;22.80;71.20;;;;;;5156855;27;20042;-87
2021/06/17 02:03:47;;;;;;;8.20;5.28;;;22.80;71.20;;;;;;5155836;27;20111;-86
2021/06/17 02:06:17;;;;;;;8.40;5.07;;;22.80;71.20;;;;;;5177560;27;20038;-87
2021/06/17 02:08:54;;;;;;;8.35;4.88;;;22.70;71.00;;;;;;5177007;27;20094;-87
2021/06/17 02:11:22;;;;;;;8.20;5.00;;;22.70;70.80;;;;;;5176569;27;20059;-87
2021/06/17 02:13:49;;;;;;;7.57;5.10;;;22.70;71.40;;;;;;5177432;27;20049;-87
2021/06/17 02:16:16;;;;;;;8.48;5.50;;;22.60;71.50;;;;;;5176927;27;20046;-87
2021/06/17 02:18:45;;;;;;;8.30;5.78;;;22.60;71.50;;;;;;5155387;27;20566;-88
2021/06/17 02:21:13;;;;;;;9.48;5.63;;;22.50;71.30;;;;;;5156054;27;20051;-86
2021/06/17 02:23:44;;;;;;;8.77;6.00;;;22.50;71.30;;;;;;5155722;27;20049;-86
2021/06/17 02:26:11;;;;;;;7.28;5.38;;;22.50;71.60;;;;;;5155537;27;20134;-86
2021/06/17 02:28:42;;;;;;;8.98;5.80;;;22.50;71.60;;;;;;5155811;27;20066;-87
2021/06/17 02:31:12;;;;;;;9.65;6.05;;;22.40;71.60;;;;;;5155808;27;20480;-87
2021/06/17 02:33:38;;;;;;;8.48;6.05;;;22.40;72.10;;;;;;5155030;27;20050;-86
2021/06/17 02:36:05;;;;;;;7.40;5.70;;;22.40;72.30;;;;;;5174049;27;20457;-87
2021/06/17 02:38:39;;;;;;;7.00;5.65;;;22.40;72.10;;;;;;5154730;27;20047;-87
2021/06/17 02:41:08;;;;;;;7.88;6.15;;;22.40;72.20;;;;;;5156068;27;20054;-87
2021/06/17 02:43:36;;;;;;;8.32;6.00;;;22.30;72.50;;;;;;5155555;27;20043;-87
2021/06/17 02:46:03;;;;;;;8.20;6.10;;;22.30;72.30;;;;;;5155073;27;20051;-87
2021/06/17 02:48:29;;;;;;;10.45;6.40;;;22.30;72.70;;;;;;5155358;27;20047;-87
2021/06/17 02:50:55;;;;;;;8.50;6.40;;;22.30;72.90;;;;;;5155532;27;20093;-88
2021/06/17 02:53:21;;;;;;;8.27;6.13;;;22.30;72.90;;;;;;5155241;27;20524;-87
2021/06/17 02:55:49;;;;;;;8.80;6.47;;;22.20;72.80;;;;;;5155310;27;20050;-85
2021/06/17 02:58:44;;;;;;;7.85;6.05;;;22.20;72.90;;;;;;5155607;27;20050;-87
2021/06/17 03:01:35;;;;;;;9.32;6.50;;;22.20;72.00;;;;;;5154620;27;20047;-87
2021/06/17 03:04:11;;;;;;;9.45;6.38;;;22.10;72.40;;;;;;5156298;27;20054;-87
2021/06/17 03:06:47;;;;;;;8.93;6.95;;;22.10;72.80;;;;;;5174706;27;20490;-87
2021/06/17 03:09:14;;;;;;;8.48;6.70;;;22.10;72.50;;;;;;5176212;27;20046;-87
2021/06/17 03:11:45;;;;;;;8.82;6.82;;;22.10;72.70;;;;;;5175790;27;20485;-88
2021/06/17 03:14:21;;;;;;;9.20;7.05;;;22.00;73.10;;;;;;5165735;27;20127;-87
2021/06/17 03:16:50;;;;;;;8.95;6.95;;;22.00;72.80;;;;;;5166592;27;20054;-87
2021/06/17 03:19:18;;;;;;;10.18;6.38;;;22.00;73.30;;;;;;5176027;27;20038;-87
2021/06/17 03:21:48;;;;;;;9.23;7.07;;;22.00;73.50;;;;;;5174918;27;20053;-87
2021/06/17 03:24:15;;;;;;;9.82;7.82;;;22.00;73.30;;;;;;5175761;27;20417;-87
2021/06/17 03:26:43;;;;;;;8.63;6.68;;;22.00;73.50;;;;;;5175736;27;20050;-87
2021/06/17 03:29:12;;;;;;;10.43;7.28;;;21.90;73.20;;;;;;5175092;27;20411;-87
2021/06/17 03:31:39;;;;;;;10.20;8.00;;;21.90;73.40;;;;;;5175459;27;20049;-87
2021/06/17 03:34:06;;;;;;;11.23;8.10;;;21.80;74.30;;;;;;5173108;27;20046;-88
2021/06/17 03:36:33;;;;;;;10.13;8.57;;;21.90;73.60;;;;;;5174692;27;20046;-87
2021/06/17 03:39:00;;;;;;;9.82;7.75;;;21.80;73.90;;;;;;5176212;27;20046;-88
2021/06/17 03:41:27;;;;;;;9.10;7.25;;;21.80;73.80;;;;;;5175122;27;20085;-85
2021/06/17 03:43:53;;;;;;;10.23;8.35;;;21.80;73.70;;;;;;5174634;27;20056;-88
2021/06/17 03:46:21;;;;;;;10.35;7.50;;;21.80;73.80;;;;;;5175645;27;20046;-88
2021/06/17 03:48:48;;;;;;;9.98;8.00;;;21.70;73.60;;;;;;5174868;27;20046;-87
2021/06/17 03:51:15;;;;;;;9.13;7.88;;;21.80;74.70;;;;;;5175288;27;20122;-87
2021/06/17 03:53:43;;;;;;;8.68;7.32;;;21.70;73.90;;;;;;5174572;27;20151;-88
2021/06/17 03:56:11;;;;;;;10.07;7.97;;;21.70;73.80;;;;;;5153867;27;20053;-88
2021/06/17 03:58:38;;;;;;;9.55;7.60;;;21.70;73.80;;;;;;5162759;27;20046;-87
2021/06/17 04:01:06;;;;;;;10.35;8.02;;;21.70;73.80;;;;;;5154739;27;20055;-88
2021/06/17 04:03:32;;;;;;;12.63;9.93;;;21.60;73.30;;;;;;5156807;27;20068;-88
2021/06/17 04:05:59;;;;;;;9.27;8.27;;;21.60;74.20;;;;;;5165036;27;20409;-87
2021/06/17 04:08:35;;;;;;;9.02;7.45;;;21.60;73.90;;;;;;5166096;27;20083;-88
2021/06/17 04:11:06;;;;;;;10.05;8.40;;;21.60;73.20;;;;;;5167642;27;20125;-87
2021/06/17 04:13:40;;;;;;;9.35;7.70;;;21.50;73.40;;;;;;5165294;27;20073;-88
2021/06/17 04:16:08;;;;;;;11.88;8.13;;;21.50;73.00;;;;;;5163093;27;20152;-87
2021/06/17 04:18:35;;;;;;;11.60;9.82;;;21.50;73.20;;;;;;5162527;27;20046;-88
2021/06/17 04:21:02;;;;;;;10.63;9.18;;;21.50;73.30;;;;;;5163898;27;20081;-88
2021/06/17 04:23:29;;;;;;;9.73;8.18;;;21.50;73.60;;;;;;5165241;27;20038;-89
2021/06/17 04:25:57;;;;;;;10.30;8.63;;;21.50;73.50;;;;;;5162952;27;20046;-88
2021/06/17 04:28:27;;;;;;;10.25;8.57;;;21.40;72.90;;;;;;5163323;27;20039;-88
2021/06/17 04:30:56;;;;;;;10.65;8.88;;;21.40;73.00;;;;;;5163055;27;20095;-87
2021/06/17 04:33:25;;;;;;;10.50;8.77;;;21.40;73.50;;;;;;5162646;27;20062;-87
2021/06/17 04:35:54;;;;;;;13.05;10.60;;;21.40;73.10;;;;;;5154212;27;20058;-89
2021/06/17 04:38:20;;;;;;;15.88;13.63;;;21.40;73.90;;;;;;5153621;27;20043;-88
2021/06/17 04:40:47;;;;;;;14.60;12.55;;;21.40;76.60;;;;;;5153690;27;20047;-87
2021/06/17 04:43:14;;;;;;;10.70;9.60;;;21.40;77.90;;;;;;5154034;27;20391;-87
2021/06/17 04:45:42;;;;;;;11.65;9.68;;;21.40;76.40;;;;;;5153082;27;20095;-88
2021/06/17 04:48:11;;;;;;;13.55;9.10;;;21.40;75.50;;;;;;5154236;27;20070;-87
2021/06/17 04:50:38;;;;;;;10.30;8.75;;;21.40;75.20;;;;;;5153852;27;20050;-87
2021/06/17 04:53:18;;;;;;;16.83;13.15;;;21.40;74.70;;;;;;5158425;27;20178;-86
2021/06/17 04:55:47;;;;;;;15.88;13.05;;;21.30;76.50;;;;;;5178425;27;20049;-87
2021/06/17 04:58:13;;;;;;;14.85;12.82;;;21.40;78.00;;;;;;5179084;27;20470;-88
2021/06/17 05:00:39;;;;;;;12.80;11.23;;;21.40;78.80;;;;;;5173687;27;20102;-87
2021/06/17 05:03:05;;;;;;;17.42;13.45;;;21.40;78.20;;;;;;5157924;27;20039;-88
2021/06/17 05:05:31;;;;;;;15.23;12.45;;;21.40;78.80;;;;;;5160825;27;20517;-88
2021/06/17 05:10:52;;;;;;;14.27;12.75;;;21.40;78.30;;;;;;5172470;27;20493;-87
2021/06/17 05:13:19;;;;;;;14.40;11.02;;;21.50;79.40;;;;;;5166471;27;20125;-87
2021/06/17 05:15:45;;;;;;;16.55;13.32;;;21.50;78.50;;;;;;5171749;27;20049;-87
2021/06/17 05:18:11;;;;;;;14.10;10.90;;;21.50;80.60;;;;;;5166352;27;20054;-89
2021/06/17 05:20:37;;;;;;;17.90;13.10;;;21.50;79.10;;;;;;5167620;27;21481;-87
2021/06/17 05:23:03;;;;;;;14.75;13.18;;;21.50;80.30;;;;;;5165670;27;20473;-86
2021/06/17 05:25:29;;;;;;;11.52;10.32;;;21.60;80.60;;;;;;5166684;27;20046;-87
2021/06/17 05:27:54;;;;;;;16.80;11.65;;;21.60;79.20;;;;;;5164965;27;20035;-87
2021/06/17 05:30:20;;;;;;;13.98;10.70;;;21.70;79.10;;;;;;5170250;27;20053;-88
2021/06/17 05:32:46;;;;;;;15.65;11.45;;;21.70;78.60;;;;;;5157261;27;20043;-88
2021/06/17 05:35:12;;;;;;;13.88;11.82;;;21.70;79.10;;;;;;5145163;27;20126;-87
2021/06/17 05:37:38;;;;;;;14.15;10.68;;;21.70;78.80;;;;;;5175027;27;20046;-88
2021/06/17 05:40:07;;;;;;;14.32;11.10;;;21.80;78.40;;;;;;5178089;27;20050;-88
2021/06/17 05:42:33;;;;;;;14.90;11.88;;;21.80;78.00;;;;;;5177291;27;20050;-88
2021/06/17 05:44:58;;;;;;;12.98;11.57;;;21.80;79.10;;;;;;5177884;27;20410;-87
2021/06/17 05:47:24;;;;;;;12.25;10.95;;;21.90;79.20;;;;;;5152159;27;20413;-86
2021/06/17 05:49:49;;;;;;;15.75;11.40;;;21.90;79.50;;;;;;5174805;27;20042;-88
2021/06/17 05:52:15;;;;;;;17.60;11.57;;;21.90;78.70;;;;;;5177637;27;20119;-88
2021/06/17 05:54:41;;;;;;;14.43;11.20;;;22.00;79.60;;;;;;5166323;27;20043;-89
2021/06/17 05:57:10;;;;;;;13.27;10.80;;;22.00;79.00;;;;;;5162184;27;20073;-89
2021/06/17 05:59:35;;;;;;;15.18;10.18;;;22.10;78.50;;;;;;5167077;27;20062;-87
2021/06/17 06:02:02;;;;;;;12.63;10.57;;;22.20;78.10;;;;;;5158326;27;20050;-87
2021/06/17 06:04:27;;;;;;;16.75;10.95;;;22.20;78.10;;;;;;5158961;27;20042;-90
2021/06/17 06:06:55;;;;;;;13.43;11.13;;;22.20;78.00;;;;;;5157206;27;20877;-85
2021/06/17 06:09:23;;;;;;;14.80;10.55;;;22.30;78.40;;;;;;5155261;27;20068;-88
2021/06/17 06:11:49;;;;;;;13.02;10.68;;;22.30;77.50;;;;;;5154566;27;20493;-88
2021/06/17 06:14:14;;;;;;;18.05;12.38;;;22.30;77.90;;;;;;5171657;27;20078;-88
2021/06/17 06:16:40;;;;;;;13.38;11.68;;;22.40;78.40;;;;;;5159097;27;20051;-88
2021/06/17 06:19:06;;;;;;;17.05;11.93;;;22.50;78.90;;;;;;5168720;27;20486;-89
2021/06/17 06:21:33;;;;;;;14.02;11.07;;;22.60;79.00;;;;;;5167021;27;20087;-89
2021/06/17 06:23:58;;;;;;;17.25;11.90;;;22.70;78.50;;;;;;5154962;27;20505;-88
2021/06/17 06:26:24;;;;;;;14.07;11.32;;;22.70;78.50;;;;;;5157856;27;20082;-89
2021/06/17 06:28:50;;;;;;;15.20;11.50;;;22.80;78.20;;;;;;5156498;27;20043;-89
2021/06/17 06:31:16;;;;;;;18.45;10.63;;;22.90;78.10;;;;;;5156153;27;20038;-90
2021/06/17 06:33:41;;;;;;;14.13;10.50;;;23.00;77.60;;;;;;5166387;27;20100;-89
2021/06/17 06:36:07;;;;;;;15.15;11.10;;;23.10;77.50;;;;;;5162260;27;20482;-89
2021/06/17 06:38:33;;;;;;;15.07;10.75;;;23.20;77.60;;;;;;5155739;27;20103;-89
2021/06/17 06:40:59;;;;;;;12.90;10.88;;;23.30;77.20;;;;;;5157676;27;20064;-89
2021/06/17 06:43:25;;;;;;;13.48;11.10;;;23.40;76.90;;;;;;5159469;27;20071;-88
2021/06/17 06:45:51;;;;;;;15.45;10.93;;;23.50;76.70;;;;;;5168936;27;20038;-89
2021/06/17 06:48:18;;;;;;;17.55;11.38;;;23.60;75.90;;;;;;5160407;27;20134;-89
2021/06/17 06:50:44;;;;;;;16.30;10.57;;;23.70;75.60;;;;;;5171310;27;20039;-90
2021/06/17 06:53:10;;;;;;;15.20;10.60;;;23.90;75.70;;;;;;5160111;27;20077;-90
2021/06/17 06:55:36;;;;;;;17.45;11.02;;;24.00;75.30;;;;;;5164811;27;20050;-91
2021/06/17 06:58:03;;;;;;;15.07;11.07;;;24.10;75.10;;;;;;5162681;27;20474;-89
2021/06/17 07:00:28;;;;;;;13.35;10.90;;;24.10;74.70;;;;;;5170851;27;20509;-87
2021/06/17 07:02:55;;;;;;;11.80;10.55;;;24.20;74.60;;;;;;5156834;27;20042;-92
2021/06/17 07:05:21;;;;;;;14.65;10.63;;;24.30;74.70;;;;;;5168042;27;20055;-86
2021/06/17 07:07:47;;;;;;;14.68;11.20;;;24.40;74.60;;;;;;5154367;27;20043;-88
2021/06/17 07:10:13;;;;;;;14.38;10.60;;;24.50;74.50;;;;;;5155182;27;20145;-86
2021/06/17 07:12:39;;;;;;;16.38;10.65;;;24.60;74.40;;;;;;5169449;27;20045;-91
2021/06/17 07:15:05;;;;;;;13.77;9.70;;;24.70;74.10;;;;;;5164781;27;20478;-89
2021/06/17 07:17:31;;;;;;;14.93;10.20;;;24.80;73.60;;;;;;5154196;27;20486;-90
2021/06/17 07:19:57;;;;;;;14.32;9.90;;;24.90;73.50;;;;;;5168815;27;20042;-90
2021/06/17 07:22:24;;;;;;;11.85;9.10;;;25.00;73.20;;;;;;5162736;27;20043;-90
2021/06/17 07:24:50;;;;;;;14.00;9.27;;;25.10;73.00;;;;;;5158841;27;20422;-91
2021/06/17 07:27:15;;;;;;;12.70;9.10;;;25.20;72.80;;;;;;5162347;27;20045;-91
2021/06/17 07:29:41;;;;;;;14.07;9.27;;;25.30;72.50;;;;;;5165543;27;20492;-91
2021/06/17 07:32:08;;;;;;;11.55;8.88;;;25.40;71.80;;;;;;5169234;27;20042;-92
2021/06/17 07:34:35;;;;;;;12.55;9.07;;;25.50;71.50;;;;;;5173983;27;20086;-90
2021/06/17 07:37:01;;;;;;;15.00;9.15;;;25.60;71.00;;;;;;5163916;27;20042;-90
2021/06/17 07:39:26;;;;;;;13.65;9.10;;;25.70;70.40;;;;;;5176827;27;20442;-90
2021/06/17 07:41:52;;;;;;;13.38;9.10;;;25.80;70.00;;;;;;5172389;27;20046;-91
2021/06/17 07:44:18;;;;;;;11.98;8.88;;;25.90;69.50;;;;;;5170790;27;20087;-91
2021/06/17 07:46:44;;;;;;;12.23;8.65;;;26.00;69.50;;;;;;5166669;27;20083;-91
2021/06/17 07:49:10;;;;;;;15.00;8.50;;;26.00;69.10;;;;;;5166705;27;20088;-93
2021/06/17 07:51:37;;;;;;;12.18;8.85;;;26.10;69.10;;;;;;5158583;27;20047;-91
2021/06/17 07:54:03;;;;;;;11.68;9.02;;;26.20;69.00;;;;;;5155890;27;20482;-92
2021/06/17 07:56:30;;;;;;;10.77;8.85;;;26.30;68.50;;;;;;5171730;27;20493;-92
2021/06/17 07:58:56;;;;;;;10.77;8.48;;;26.40;68.60;;;;;;5171858;27;20038;-93
2021/06/17 08:01:22;;;;;;;13.35;8.48;;;26.50;68.20;;;;;;5175687;27;20052;-91
2021/06/17 08:03:49;;;;;;;13.13;8.43;;;26.60;68.30;;;;;;5172348;27;20054;-89
2021/06/17 08:06:15;;;;;;;16.23;8.93;;;26.70;68.80;;;;;;5164987;27;20106;-93
2021/06/17 08:08:42;;;;;;;11.70;8.15;;;26.80;68.40;;;;;;5158611;27;20486;-94
2021/06/17 08:11:08;;;;;;;10.13;7.80;;;26.90;68.00;;;;;;5173446;27;20042;-92
2021/06/17 08:13:34;;;;;;;14.10;8.32;;;27.00;67.30;;;;;;5162220;27;20042;-88
2021/06/17 08:15:59;;;;;;;10.82;7.40;;;27.10;67.00;;;;;;5163100;27;20129;-90
2021/06/17 08:18:25;;;;;;;14.23;7.45;;;27.20;66.50;;;;;;5172666;27;20043;-91
2021/06/17 08:20:54;;;;;;;13.57;7.78;;;27.20;65.80;;;;;;5176418;27;20046;-93
2021/06/17 08:23:21;;;;;;;12.48;8.00;;;27.40;65.90;;;;;;5161204;27;20485;-91
2021/06/17 08:25:50;;;;;;;12.38;8.13;;;27.40;64.80;;;;;;5172431;27;20125;-93
2021/06/17 08:28:16;;;;;;;11.93;7.05;;;27.60;65.50;;;;;;5162895;27;20086;-90
2021/06/17 08:30:41;;;;;;;11.82;6.75;;;27.60;64.50;;;;;;5173862;27;20050;-89
2021/06/17 08:33:07;;;;;;;13.32;7.10;;;27.70;64.30;;;;;;5166193;27;20042;-89
2021/06/17 08:35:34;;;;;;;11.63;6.97;;;27.80;63.80;;;;;;5171108;27;20609;-89
2021/06/17 08:38:00;;;;;;;10.07;6.68;;;27.80;63.40;;;;;;5174537;27;20044;-90
2021/06/17 08:40:30;;;;;;;12.55;7.68;;;27.90;63.40;;;;;;5160051;27;20062;-91
2021/06/17 08:42:56;;;;;;;11.38;6.72;;;28.00;63.00;;;;;;5162108;27;20039;-91
2021/06/17 08:45:22;;;;;;;15.05;6.50;;;28.10;63.60;;;;;;5170506;27;20054;-91
2021/06/17 08:47:47;;;;;;;13.70;6.82;;;28.20;62.80;;;;;;5170070;27;20046;-90
2021/06/17 08:50:15;;;;;;;12.23;6.85;;;28.30;63.10;;;;;;5166870;27;20481;-95
2021/06/17 08:52:43;;;;;;;11.07;5.90;;;28.40;62.90;;;;;;5167793;27;20039;-93
2021/06/17 08:55:13;;;;;;;10.38;5.53;;;28.40;61.60;;;;;;5155097;27;20094;-91
2021/06/17 08:57:39;;;;;;;7.63;5.07;;;28.50;60.70;;;;;;5166278;27;20466;-91
2021/06/17 09:00:36;;;;;;;11.20;6.13;;;28.60;60.20;;;;;;5156949;27;20089;-89
2021/06/17 09:03:09;;;;;;;11.48;5.65;;;28.70;61.10;;;;;;5155236;27;20126;-90
2021/06/17 09:05:39;;;;;;;9.60;5.40;;;28.80;61.40;;;;;;5160678;27;20073;-90
2021/06/17 09:08:07;;;;;;;11.35;6.15;;;28.90;60.10;;;;;;5167437;27;20052;-90
2021/06/17 09:10:34;;;;;;;13.13;5.63;;;29.00;60.00;;;;;;5169314;27;20081;-88
2021/06/17 09:13:02;;;;;;;6.75;5.22;;;29.10;59.70;;;;;;5158688;27;20064;-86
2021/06/17 09:15:39;;;;;;;8.85;5.30;;;29.20;59.00;;;;;;5168233;27;20114;-90
2021/06/17 09:18:27;;;;;;;10.25;5.22;;;29.20;59.30;;;;;;5164280;27;20043;-90
2021/06/17 09:21:03;;;;;;;10.05;5.32;;;29.30;60.00;;;;;;5160352;27;20114;-89
2021/06/17 09:23:30;;;;;;;9.50;5.05;;;29.40;58.40;;;;;;5173298;27;20042;-90
2021/06/17 09:25:59;;;;;;;11.45;4.90;;;29.50;58.60;;;;;;5160448;27;20038;-92
2021/06/17 09:28:27;;;;;;;7.93;4.53;;;29.50;58.70;;;;;;5160225;27;20049;-87
2021/06/17 09:30:53;;;;;;;7.53;4.65;;;29.60;58.30;;;;;;5160701;27;20042;-89
2021/06/17 09:33:24;;;;;;;8.35;4.47;;;29.70;57.30;;;;;;5167326;27;20485;-89
2021/06/17 09:35:52;;;;;;;9.00;4.63;;;29.80;57.50;;;;;;5165633;27;20497;-87
2021/06/17 09:38:19;;;;;;;10.38;4.72;;;29.90;57.60;;;;;;5166625;27;20042;-88
2021/06/17 09:40:46;;;;;;;11.45;4.50;;;29.90;57.30;;;;;;5169178;27;20050;-89
2021/06/17 09:43:12;;;;;;;8.40;3.90;;;30.00;57.30;;;;;;5156413;27;20125;-88
2021/06/17 09:45:38;;;;;;;8.30;4.40;;;30.10;57.10;;;;;;5158993;27;20068;-88
2021/06/17 09:48:04;;;;;;;11.25;4.32;;;30.20;56.20;;;;;;5155897;27;20474;-87
2021/06/17 09:50:29;;;;;;;8.00;4.57;;;30.30;56.60;;;;;;5173391;27;20042;-86
2021/06/17 09:52:56;;;;;;;10.45;4.60;;;30.40;56.80;;;;;;5159434;27;20082;-88
2021/06/17 09:55:44;;;;;;;7.57;4.25;;;30.40;56.60;;;;;;5164265;27;20042;-93
2021/06/17 09:58:37;;;;;;;8.45;4.18;;;30.50;54.90;;;;;;5174693;27;20050;-88
2021/06/17 10:01:04;;;;;;;9.43;3.95;;;30.60;55.20;;;;;;5162021;27;20041;-87
2021/06/17 10:03:29;;;;;;;6.68;3.90;;;30.70;54.80;;;;;;5168782;27;20043;-88
2021/06/17 10:05:57;;;;;;;12.15;4.43;;;30.80;54.30;;;;;;5161135;27;20054;-89
2021/06/17 10:08:27;;;;;;;7.50;4.05;;;30.90;54.50;;;;;;5173813;27;20054;-89
2021/06/17 10:10:52;;;;;;;10.32;4.00;;;30.90;54.60;;;;;;5158996;27;20042;-89
2021/06/17 10:13:26;;;;;;;7.05;3.95;;;31.00;53.80;;;;;;5173800;27;20378;-87
2021/06/17 10:15:53;;;;;;;7.95;3.92;;;31.00;53.30;;;;;;5155586;27;20059;-89
2021/06/17 10:18:19;;;;;;;9.38;4.55;;;31.10;53.20;;;;;;5168843;27;20073;-90
2021/06/17 10:20:45;;;;;;;6.78;4.00;;;31.20;52.50;;;;;;5164153;27;20475;-89
2021/06/17 10:23:14;;;;;;;8.13;4.03;;;31.20;52.60;;;;;;5172249;27;20042;-90
2021/06/17 10:25:40;;;;;;;11.45;4.03;;;31.20;52.30;;;;;;5162610;27;20087;-89
2021/06/17 10:28:06;;;;;;;10.75;3.60;;;31.20;52.00;;;;;;5158262;27;20038;-89
2021/06/17 10:30:46;;;;;;;10.80;3.75;;;31.30;51.80;;;;;;5156108;27;20440;-89
2021/06/17 10:33:32;;;;;;;6.28;3.78;;;31.30;51.70;;;;;;5162257;27;20474;-88
2021/06/17 10:36:21;;;;;;;7.75;4.25;;;31.30;51.40;;;;;;5163526;27;20063;-92
2021/06/17 10:39:09;;;;;;;10.73;4.00;;;31.40;52.00;;;;;;5174829;27;20042;-91
2021/06/17 10:41:58;;;;;;;6.80;4.00;;;31.50;52.70;;;;;;5165117;27;20054;-89
2021/06/17 10:44:46;;;;;;;8.73;3.80;;;31.50;52.10;;;;;;5161893;27;20042;-90
2021/06/17 10:47:47;;;;;;;8.68;3.40;;;31.60;52.30;;;;;;5168114;27;20052;-90
2021/06/17 10:50:38;;;;;;;9.07;3.53;;;31.70;51.50;;;;;;5161036;27;20082;-86
2021/06/17 10:53:17;;;;;;;8.05;3.72;;;31.80;50.70;;;;;;5159807;27;20500;-87
2021/06/17 10:56:02;;;;;;;7.63;3.60;;;31.90;51.90;;;;;;5164442;27;20078;-86
2021/06/17 10:58:45;;;;;;;10.02;3.70;;;31.90;51.90;;;;;;5158438;27;20074;-88
2021/06/17 11:01:29;;;;;;;11.13;3.75;;;32.00;52.10;;;;;;5152780;27;20073;-88
2021/06/17 11:04:11;;;;;;;8.60;3.90;;;32.10;51.40;;;;;;5162696;27;20045;-86
2021/06/17 11:06:52;;;;;;;11.40;4.05;;;32.10;50.00;;;;;;5173462;27;20050;-86
2021/06/17 11:09:42;;;;;;;9.18;3.97;;;32.20;50.50;;;;;;5168573;27;20070;-91
2021/06/17 11:12:17;;;;;;;11.15;4.15;;;32.30;50.10;;;;;;5165141;27;20892;-88
2021/06/17 11:14:44;;;;;;;5.38;3.65;;;32.30;50.60;;;;;;5175510;27;20238;-88
2021/06/17 11:17:31;;;;;;;8.38;3.58;;;32.40;51.10;;;;;;5165381;27;20504;-91
2021/06/17 11:20:07;;;;;;;9.27;3.70;;;32.40;49.70;;;;;;5151421;27;20053;-91
2021/06/17 11:22:48;;;;;;;8.77;3.65;;;32.50;49.30;;;;;;5160507;27;20046;-91
2021/06/17 11:25:19;;;;;;;9.05;3.45;;;32.60;49.90;;;;;;5169457;27;20478;-91
2021/06/17 11:27:57;;;;;;;10.23;3.50;;;32.60;50.10;;;;;;5162610;27;20043;-89
2021/06/17 11:30:49;;;;;;;8.23;3.45;;;32.60;48.90;;;;;;5168097;27;20371;-91
2021/06/17 11:33:19;;;;;;;7.38;3.53;;;32.70;49.60;;;;;;5144740;27;20549;-94
2021/06/17 11:35:58;;;;;;;6.35;3.40;;;32.70;50.50;;;;;;5167808;27;20137;-87
2021/06/17 11:38:25;;;;;;;7.13;3.50;;;32.70;49.70;;;;;;5155978;27;20050;-88
2021/06/17 11:40:51;;;;;;;8.27;3.60;;;32.70;49.50;;;;;;5154260;27;20121;-90
2021/06/17 11:43:21;;;;;;;7.57;3.40;;;32.80;49.40;;;;;;5151551;27;20133;-90
2021/06/17 11:45:47;;;;;;;9.18;3.67;;;32.70;50.80;;;;;;5153523;27;20102;-90
2021/06/17 11:48:13;;;;;;;7.43;3.42;;;32.80;50.60;;;;;;5168556;27;20133;-90
2021/06/17 11:50:45;;;;;;;9.73;3.75;;;32.90;50.10;;;;;;5169809;27;20056;-90
2021/06/17 11:53:25;;;;;;;7.30;3.33;;;32.90;49.90;;;;;;5154504;27;20076;-93
2021/06/17 11:55:58;;;;;;;7.60;3.08;;;32.90;47.80;;;;;;5150991;27;20494;-90
2021/06/17 11:58:29;;;;;;;8.35;3.20;;;32.90;48.70;;;;;;5151667;27;20398;-91
2021/06/17 12:00:55;;;;;;;7.22;3.20;;;32.90;48.00;;;;;;5158764;27;20050;-89
2021/06/17 12:03:24;;;;;;;7.00;3.13;;;32.90;48.00;;;;;;5166090;27;20070;-88
2021/06/17 12:06:09;;;;;;;7.80;3.50;;;33.00;48.40;;;;;;5165268;27;20565;-87
2021/06/17 12:08:37;;;;;;;8.85;3.10;;;33.00;47.90;;;;;;5152796;27;20091;-88
2021/06/17 12:11:20;;;;;;;7.43;2.90;;;33.10;47.80;;;;;;5152123;27;20402;-87
2021/06/17 12:13:50;;;;;;;5.63;2.88;;;33.10;47.70;;;;;;5164731;27;20393;-88
2021/06/17 12:16:20;;;;;;;6.93;3.40;;;33.20;48.40;;;;;;5158178;27;20051;-89
2021/06/17 12:18:45;;;;;;;6.03;2.70;;;33.30;48.30;;;;;;5171281;27;20094;-91
2021/06/17 12:21:33;;;;;;;5.30;3.00;;;33.30;49.30;;;;;;5160760;27;20406;-88
2021/06/17 12:23:59;;;;;;;5.30;3.10;;;33.30;50.60;;;;;;5177760;27;20065;-91
2021/06/17 12:26:30;;;;;;;6.47;3.20;;;33.40;49.50;;;;;;5172405;27;20071;-91
2021/06/17 12:28:58;;;;;;;7.72;2.92;;;33.40;51.00;;;;;;5159331;27;20045;-92
2021/06/17 12:31:39;;;;;;;7.70;2.83;;;33.40;50.10;;;;;;5171769;27;20552;-91
2021/06/17 12:34:12;;;;;;;6.15;2.85;;;33.50;47.50;;;;;;5175935;27;20050;-92
2021/06/17 12:36:39;;;;;;;6.13;2.83;;;33.50;48.40;;;;;;5171797;27;20042;-94
2021/06/17 12:39:13;;;;;;;7.15;3.22;;;33.50;48.00;;;;;;5156169;27;20046;-90
2021/06/17 12:41:46;;;;;;;5.88;3.03;;;33.50;47.20;;;;;;5161383;27;20046;-92
2021/06/17 12:44:30;;;;;;;6.95;3.22;;;33.50;47.70;;;;;;5154458;27;20068;-88
2021/06/17 12:46:58;;;;;;;10.55;2.70;;;33.60;47.50;;;;;;5161644;27;20098;-91
2021/06/17 12:52:01;;;;;;;7.18;2.90;;;33.70;47.10;;;;;;5175437;27;20050;-91
2021/06/17 12:52:10;;;;;;;5.75;2.50;;;33.70;46.90;;;;;;5159333;27;20054;-91
2021/06/17 12:54:48;;;;;;;6.45;2.90;;;33.70;46.30;;;;;;5171401;27;20042;-91
2021/06/17 12:57:16;;;;;;;7.75;2.72;;;33.70;46.30;;;;;;5161652;27;20500;-88